sensor_id;sensor_type;location;lat;lon;timestamp;pressure;altitude;pressure_sealevel;temperature;humidity
2188;BME280;1100;52.014;8.540;2023-01-31T00:00:28;100737.38;;;2.28;92.62
2188;BME280;1100;52.014;8.540;2023-01-31T00:02:53;100727.63;;;2.30;92.50
2188;BME280;1100;52.014;8.540;2023-01-31T00:05:19;100717.44;;;2.31;92.54
2188;BME280;1100;52.014;8.540;2023-01-31T00:07:45;100718.22;;;2.31;92.13
2188;BME280;1100;52.014;8.540;2023-01-31T00:10:11;100713.13;;;2.30;92.36
2188;BME280;1100;52.014;8.540;2023-01-31T00:12:37;100712.31;;;2.29;91.98
2188;BME280;1100;52.014;8.540;2023-01-31T00:15:03;100717.81;;;2.29;92.31
2188;BME280;1100;52.014;8.540;2023-01-31T00:17:28;100726.91;;;2.33;92.48
2188;BME280;1100;52.014;8.540;2023-01-31T00:19:53;100726.56;;;2.39;92.58
2188;BME280;1100;52.014;8.540;2023-01-31T00:22:19;100733.22;;;2.38;92.34
2188;BME280;1100;52.014;8.540;2023-01-31T00:24:44;100732.78;;;2.35;92.47
2188;BME280;1100;52.014;8.540;2023-01-31T00:27:09;100726.16;;;2.36;92.60
2188;BME280;1100;52.014;8.540;2023-01-31T00:29:34;100729.28;;;2.35;92.20
2188;BME280;1100;52.014;8.540;2023-01-31T00:32:00;100714.31;;;2.32;92.42
2188;BME280;1100;52.014;8.540;2023-01-31T00:34:25;100716.59;;;2.27;92.24
2188;BME280;1100;52.014;8.540;2023-01-31T00:36:50;100715.00;;;2.26;92.36
2188;BME280;1100;52.014;8.540;2023-01-31T00:39:16;100715.00;;;2.26;92.63
2188;BME280;1100;52.014;8.540;2023-01-31T00:41:41;100716.66;;;2.30;92.83
2188;BME280;1100;52.014;8.540;2023-01-31T00:44:06;100708.44;;;2.30;92.56
2188;BME280;1100;52.014;8.540;2023-01-31T00:46:32;100717.44;;;2.31;92.36
2188;BME280;1100;52.014;8.540;2023-01-31T00:48:57;100718.22;;;2.31;92.47
2188;BME280;1100;52.014;8.540;2023-01-31T00:51:24;100720.53;;;2.29;92.67
2188;BME280;1100;52.014;8.540;2023-01-31T00:53:50;100728.38;;;2.27;92.24
2188;BME280;1100;52.014;8.540;2023-01-31T00:56:17;100727.56;;;2.27;92.57
2188;BME280;1100;52.014;8.540;2023-01-31T00:58:43;100716.97;;;2.25;92.66
2188;BME280;1100;52.014;8.540;2023-01-31T01:01:12;100733.50;;;2.29;92.43
2188;BME280;1100;52.014;8.540;2023-01-31T01:03:38;100718.97;;;2.28;92.57
2188;BME280;1100;52.014;8.540;2023-01-31T01:06:05;100722.88;;;2.27;92.68
2188;BME280;1100;52.014;8.540;2023-01-31T01:08:31;100722.88;;;2.27;92.56
2188;BME280;1100;52.014;8.540;2023-01-31T01:11:24;100729.13;;;2.28;92.80
2188;BME280;1100;52.014;8.540;2023-01-31T01:13:49;100735.44;;;2.28;92.59
2188;BME280;1100;52.014;8.540;2023-01-31T01:16:17;100741.72;;;2.29;92.85
2188;BME280;1100;52.014;8.540;2023-01-31T01:18:43;100740.91;;;2.28;92.40
2188;BME280;1100;52.014;8.540;2023-01-31T01:21:19;100726.41;;;2.28;92.89
2188;BME280;1100;52.014;8.540;2023-01-31T01:23:45;100742.44;;;2.26;92.48
2188;BME280;1100;52.014;8.540;2023-01-31T01:26:20;100754.19;;;2.26;92.49
2188;BME280;1100;52.014;8.540;2023-01-31T01:28:47;100734.59;;;2.24;92.63
2188;BME280;1100;52.014;8.540;2023-01-31T01:31:13;100733.78;;;2.23;92.77
2188;BME280;1100;52.014;8.540;2023-01-31T01:33:43;100740.06;;;2.24;92.72
2188;BME280;1100;52.014;8.540;2023-01-31T01:36:10;100734.50;;;2.20;92.71
2188;BME280;1100;52.014;8.540;2023-01-31T01:38:42;100737.63;;;2.19;92.72
2188;BME280;1100;52.014;8.540;2023-01-31T01:41:09;100747.03;;;2.18;92.69
2188;BME280;1100;52.014;8.540;2023-01-31T01:43:47;100746.22;;;2.17;92.65
2188;BME280;1100;52.014;8.540;2023-01-31T01:46:17;100750.13;;;2.16;92.78
2188;BME280;1100;52.014;8.540;2023-01-31T01:48:47;100746.66;;;2.19;92.89
2188;BME280;1100;52.014;8.540;2023-01-31T01:51:14;100753.66;;;2.17;92.72
2188;BME280;1100;52.014;8.540;2023-01-31T01:53:45;100756.81;;;2.19;92.78
2188;BME280;1100;52.014;8.540;2023-01-31T01:56:16;100757.66;;;2.23;92.99
2188;BME280;1100;52.014;8.540;2023-01-31T01:59:02;100751.09;;;2.28;92.57
2188;BME280;1100;52.014;8.540;2023-01-31T02:01:32;100766.34;;;2.25;92.97
2188;BME280;1100;52.014;8.540;2023-01-31T02:03:58;100770.63;;;2.22;92.80
2188;BME280;1100;52.014;8.540;2023-01-31T02:06:23;100765.50;;;2.21;92.80
2188;BME280;1100;52.014;8.540;2023-01-31T02:08:49;100770.19;;;2.20;92.89
2188;BME280;1100;52.014;8.540;2023-01-31T02:11:22;100777.59;;;2.20;92.83
2188;BME280;1100;52.014;8.540;2023-01-31T02:13:50;100759.56;;;2.19;93.00
2188;BME280;1100;52.014;8.540;2023-01-31T02:16:17;100772.91;;;2.20;92.89
2188;BME280;1100;52.014;8.540;2023-01-31T02:18:43;100772.13;;;2.20;92.59
2188;BME280;1100;52.014;8.540;2023-01-31T02:21:19;100778.78;;;2.19;93.01
2188;BME280;1100;52.014;8.540;2023-01-31T02:27:22;100774.81;;;2.16;92.54
2188;BME280;1100;52.014;8.540;2023-01-31T02:32:27;100793.81;;;2.05;92.57
2188;BME280;1100;52.014;8.540;2023-01-31T02:37:36;100784.94;;;1.92;92.35
2188;BME280;1100;52.014;8.540;2023-01-31T02:43:06;100793.78;;;1.82;92.35
2188;BME280;1100;52.014;8.540;2023-01-31T02:48:28;100787.84;;;1.80;92.61
2188;BME280;1100;52.014;8.540;2023-01-31T02:51:14;100792.16;;;1.81;92.82
2188;BME280;1100;52.014;8.540;2023-01-31T02:53:52;100794.91;;;1.81;92.81
2188;BME280;1100;52.014;8.540;2023-01-31T02:56:22;100797.66;;;1.81;92.62
2188;BME280;1100;52.014;8.540;2023-01-31T02:59:09;100794.03;;;1.77;92.29
2188;BME280;1100;52.014;8.540;2023-01-31T03:01:42;100792.38;;;1.72;92.58
2188;BME280;1100;52.014;8.540;2023-01-31T03:04:11;100794.28;;;1.68;92.42
2188;BME280;1100;52.014;8.540;2023-01-31T03:06:46;100791.44;;;1.64;92.41
2188;BME280;1100;52.014;8.540;2023-01-31T03:09:51;100783.50;;;1.59;92.43
2188;BME280;1100;52.014;8.540;2023-01-31T03:12:31;100791.66;;;1.55;92.70
2188;BME280;1100;52.014;8.540;2023-01-31T03:18:45;100789.94;;;1.47;92.44
2188;BME280;1100;52.014;8.540;2023-01-31T03:21:26;100771.47;;;1.44;92.53
2188;BME280;1100;52.014;8.540;2023-01-31T03:23:56;100780.50;;;1.44;92.30
2188;BME280;1100;52.014;8.540;2023-01-31T03:26:23;100762.75;;;1.38;92.39
2188;BME280;1100;52.014;8.540;2023-01-31T03:28:51;100760.38;;;1.36;92.57
2188;BME280;1100;52.014;8.540;2023-01-31T03:31:28;100754.72;;;1.29;92.55
2188;BME280;1100;52.014;8.540;2023-01-31T03:34:05;100746.00;;;1.23;92.27
2188;BME280;1100;52.014;8.540;2023-01-31T03:39:18;100734.38;;;1.10;92.13
2188;BME280;1100;52.014;8.540;2023-01-31T03:41:56;100731.03;;;1.01;92.56
2188;BME280;1100;52.014;8.540;2023-01-31T03:49:44;100719.34;;;0.84;92.36
2188;BME280;1100;52.014;8.540;2023-01-31T03:52:11;100717.31;;;0.81;92.47
2188;BME280;1100;52.014;8.540;2023-01-31T03:54:45;100718.03;;;0.78;92.63
2188;BME280;1100;52.014;8.540;2023-01-31T03:57:19;100715.09;;;0.71;92.51
2188;BME280;1100;52.014;8.540;2023-01-31T03:59:49;100720.59;;;0.71;92.72
2188;BME280;1100;52.014;8.540;2023-01-31T04:02:20;100715.81;;;0.68;92.62
2188;BME280;1100;52.014;8.540;2023-01-31T04:04:54;100722.81;;;0.65;92.82
2188;BME280;1100;52.014;8.540;2023-01-31T04:07:20;100722.44;;;0.67;92.74
2188;BME280;1100;52.014;8.540;2023-01-31T04:09:46;100718.50;;;0.64;92.83
2188;BME280;1100;52.014;8.540;2023-01-31T04:12:13;100714.94;;;0.64;92.94
2188;BME280;1100;52.014;8.540;2023-01-31T04:14:39;100715.75;;;0.64;92.86
2188;BME280;1100;52.014;8.540;2023-01-31T04:17:05;100712.56;;;0.62;93.07
2188;BME280;1100;52.014;8.540;2023-01-31T04:19:30;100717.25;;;0.61;93.09
2188;BME280;1100;52.014;8.540;2023-01-31T04:21:55;100711.84;;;0.65;93.35
2188;BME280;1100;52.014;8.540;2023-01-31T04:24:21;100721.28;;;0.68;93.10
2188;BME280;1100;52.014;8.540;2023-01-31T04:26:46;100716.72;;;0.72;93.39
2188;BME280;1100;52.014;8.540;2023-01-31T04:29:12;100722.25;;;0.76;93.05
2188;BME280;1100;52.014;8.540;2023-01-31T04:31:37;100720.31;;;0.76;93.36
2188;BME280;1100;52.014;8.540;2023-01-31T04:34:04;100710.59;;;0.79;93.46
2188;BME280;1100;52.014;8.540;2023-01-31T04:36:29;100710.22;;;0.80;93.23
2188;BME280;1100;52.014;8.540;2023-01-31T04:38:54;100709.09;;;0.81;93.03
2188;BME280;1100;52.014;8.540;2023-01-31T04:41:20;100710.69;;;0.82;93.32
2188;BME280;1100;52.014;8.540;2023-01-31T04:43:45;100701.31;;;0.83;93.41
2188;BME280;1100;52.014;8.540;2023-01-31T04:46:10;100694.69;;;0.84;93.32
2188;BME280;1100;52.014;8.540;2023-01-31T04:48:36;100690.44;;;0.87;93.14
2188;BME280;1100;52.014;8.540;2023-01-31T04:51:03;100699.16;;;0.93;93.35
2188;BME280;1100;52.014;8.540;2023-01-31T04:53:28;100702.34;;;0.95;93.52
2188;BME280;1100;52.014;8.540;2023-01-31T04:55:54;100696.88;;;0.95;93.31
2188;BME280;1100;52.014;8.540;2023-01-31T04:58:20;100696.97;;;0.98;93.53
2188;BME280;1100;52.014;8.540;2023-01-31T05:00:46;100694.72;;;1.04;93.29
2188;BME280;1100;52.014;8.540;2023-01-31T05:03:11;100699.56;;;1.11;93.49
2188;BME280;1100;52.014;8.540;2023-01-31T05:05:37;100688.66;;;1.15;93.60
2188;BME280;1100;52.014;8.540;2023-01-31T05:08:03;100681.75;;;1.21;93.78
2188;BME280;1100;52.014;8.540;2023-01-31T05:10:28;100680.31;;;1.27;93.69
2188;BME280;1100;52.014;8.540;2023-01-31T05:12:54;100679.31;;;1.35;93.59
2188;BME280;1100;52.014;8.540;2023-01-31T05:15:19;100682.22;;;1.43;93.76
2188;BME280;1100;52.014;8.540;2023-01-31T05:17:51;100685.81;;;1.47;93.84
2188;BME280;1100;52.014;8.540;2023-01-31T05:20:17;100667.13;;;1.53;93.73
2188;BME280;1100;52.014;8.540;2023-01-31T05:22:46;100656.22;;;1.56;93.97
2188;BME280;1100;52.014;8.540;2023-01-31T05:25:12;100650.03;;;1.59;93.74
2188;BME280;1100;52.014;8.540;2023-01-31T05:27:37;100640.78;;;1.68;94.04
2188;BME280;1100;52.014;8.540;2023-01-31T05:30:03;100639.69;;;1.72;94.01
2188;BME280;1100;52.014;8.540;2023-01-31T05:32:29;100636.63;;;1.78;94.15
2188;BME280;1100;52.014;8.540;2023-01-31T05:34:55;100635.53;;;1.82;93.73
2188;BME280;1100;52.014;8.540;2023-01-31T05:37:20;100632.50;;;1.88;93.56
2188;BME280;1100;52.014;8.540;2023-01-31T05:39:46;100632.56;;;1.91;93.88
2188;BME280;1100;52.014;8.540;2023-01-31T05:42:11;100641.63;;;1.95;93.78
2188;BME280;1100;52.014;8.540;2023-01-31T05:44:37;100644.06;;;2.01;93.75
2188;BME280;1100;52.014;8.540;2023-01-31T05:47:02;100638.63;;;2.04;93.59
2188;BME280;1100;52.014;8.540;2023-01-31T05:49:27;100634.75;;;2.05;93.61
2188;BME280;1100;52.014;8.540;2023-01-31T05:51:57;100635.59;;;2.09;93.91
2188;BME280;1100;52.014;8.540;2023-01-31T05:54:23;100634.84;;;2.13;93.56
2188;BME280;1100;52.014;8.540;2023-01-31T05:56:48;100637.28;;;2.18;93.76
2188;BME280;1100;52.014;8.540;2023-01-31T05:59:15;100631.06;;;2.21;93.64
2188;BME280;1100;52.014;8.540;2023-01-31T06:01:40;100637.41;;;2.25;93.79
2188;BME280;1100;52.014;8.540;2023-01-31T06:04:06;100631.91;;;2.25;93.69
2188;BME280;1100;52.014;8.540;2023-01-31T06:06:31;100637.03;;;2.27;93.57
2188;BME280;1100;52.014;8.540;2023-01-31T06:08:56;100625.69;;;2.28;93.62
2188;BME280;1100;52.014;8.540;2023-01-31T06:11:22;100621.41;;;2.31;93.51
2188;BME280;1100;52.014;8.540;2023-01-31T06:13:49;100621.84;;;2.33;93.51
2188;BME280;1100;52.014;8.540;2023-01-31T06:16:14;100608.56;;;2.35;93.59
2188;BME280;1100;52.014;8.540;2023-01-31T06:18:40;100613.28;;;2.38;93.89
2188;BME280;1100;52.014;8.540;2023-01-31T06:21:05;100617.25;;;2.41;93.47
2188;BME280;1100;52.014;8.540;2023-01-31T06:23:31;100614.94;;;2.43;93.54
2188;BME280;1100;52.014;8.540;2023-01-31T06:25:58;100607.44;;;2.40;93.54
2188;BME280;1100;52.014;8.540;2023-01-31T06:28:23;100618.03;;;2.41;93.57
2188;BME280;1100;52.014;8.540;2023-01-31T06:30:49;100613.75;;;2.44;93.31
2188;BME280;1100;52.014;8.540;2023-01-31T06:33:15;100618.81;;;2.42;93.63
2188;BME280;1100;52.014;8.540;2023-01-31T06:35:44;100612.94;;;2.40;93.70
2188;BME280;1100;52.014;8.540;2023-01-31T06:38:09;100614.88;;;2.39;93.41
2188;BME280;1100;52.014;8.540;2023-01-31T06:40:36;100609.81;;;2.41;93.36
2188;BME280;1100;52.014;8.540;2023-01-31T06:43:02;100615.75;;;2.47;93.78
2188;BME280;1100;52.014;8.540;2023-01-31T06:45:27;100609.47;;;2.46;93.24
2188;BME280;1100;52.014;8.540;2023-01-31T06:47:55;100614.59;;;2.48;93.59
2188;BME280;1100;52.014;8.540;2023-01-31T06:50:21;100600.88;;;2.48;93.50
2188;BME280;1100;52.014;8.540;2023-01-31T06:52:46;100611.84;;;2.48;93.46
2188;BME280;1100;52.014;8.540;2023-01-31T06:55:12;100610.72;;;2.49;93.34
2188;BME280;1100;52.014;8.540;2023-01-31T06:57:45;100609.09;;;2.48;93.31
2188;BME280;1100;52.014;8.540;2023-01-31T07:00:10;100600.09;;;2.47;93.47
2188;BME280;1100;52.014;8.540;2023-01-31T07:02:36;100603.25;;;2.49;93.75
2188;BME280;1100;52.014;8.540;2023-01-31T07:05:01;100603.69;;;2.52;93.33
2188;BME280;1100;52.014;8.540;2023-01-31T07:07:26;100609.59;;;2.54;93.11
2188;BME280;1100;52.014;8.540;2023-01-31T07:09:52;100602.56;;;2.56;93.21
2188;BME280;1100;52.014;8.540;2023-01-31T07:12:20;100605.31;;;2.56;93.48
2188;BME280;1100;52.014;8.540;2023-01-31T07:14:46;100604.50;;;2.56;93.59
2188;BME280;1100;52.014;8.540;2023-01-31T07:17:11;100589.28;;;2.58;93.38
2188;BME280;1100;52.014;8.540;2023-01-31T07:19:37;100579.06;;;2.59;93.37
2188;BME280;1100;52.014;8.540;2023-01-31T07:22:02;100584.97;;;2.61;93.09
2188;BME280;1100;52.014;8.540;2023-01-31T07:24:27;100584.19;;;2.60;93.40
2188;BME280;1100;52.014;8.540;2023-01-31T07:26:52;100575.56;;;2.62;93.03
2188;BME280;1100;52.014;8.540;2023-01-31T07:29:18;100568.13;;;2.63;93.00
2188;BME280;1100;52.014;8.540;2023-01-31T07:31:43;100568.50;;;2.61;93.07
2188;BME280;1100;52.014;8.540;2023-01-31T07:34:09;100567.34;;;2.62;93.09
2188;BME280;1100;52.014;8.540;2023-01-31T07:36:34;100570.50;;;2.64;93.15
2188;BME280;1100;52.014;8.540;2023-01-31T07:38:59;100569.31;;;2.61;93.03
2188;BME280;1100;52.014;8.540;2023-01-31T07:41:26;100574.44;;;2.63;92.90
2188;BME280;1100;52.014;8.540;2023-01-31T07:43:51;100561.91;;;2.66;92.98
2188;BME280;1100;52.014;8.540;2023-01-31T07:46:17;100563.84;;;2.65;93.19
2188;BME280;1100;52.014;8.540;2023-01-31T07:48:43;100568.13;;;2.63;92.88
2188;BME280;1100;52.014;8.540;2023-01-31T07:51:09;100565.81;;;2.65;93.09
2188;BME280;1100;52.014;8.540;2023-01-31T07:53:36;100560.34;;;2.65;92.97
2188;BME280;1100;52.014;8.540;2023-01-31T07:56:14;100563.84;;;2.65;93.11
2188;BME280;1100;52.014;8.540;2023-01-31T07:58:41;100556.03;;;2.67;93.14
2188;BME280;1100;52.014;8.540;2023-01-31T08:01:11;100556.84;;;2.68;92.88
2188;BME280;1100;52.014;8.540;2023-01-31T08:03:57;100543.53;;;2.70;92.92
2188;BME280;1100;52.014;8.540;2023-01-31T08:06:22;100540.81;;;2.73;93.07
2188;BME280;1100;52.014;8.540;2023-01-31T08:08:47;100547.09;;;2.74;92.61
2188;BME280;1100;52.014;8.540;2023-01-31T08:11:12;100543.19;;;2.75;92.72
2188;BME280;1100;52.014;8.540;2023-01-31T08:13:38;100532.63;;;2.77;92.73
2188;BME280;1100;52.014;8.540;2023-01-31T08:16:06;100531.47;;;2.78;92.86
2188;BME280;1100;52.014;8.540;2023-01-31T08:18:32;100524.44;;;2.81;92.63
2188;BME280;1100;52.014;8.540;2023-01-31T08:20:58;100532.31;;;2.82;93.19
2188;BME280;1100;52.014;8.540;2023-01-31T08:23:23;100522.09;;;2.83;92.72
2188;BME280;1100;52.014;8.540;2023-01-31T08:25:49;100513.91;;;2.86;92.49
2188;BME280;1100;52.014;8.540;2023-01-31T08:28:17;100509.22;;;2.87;92.64
2188;BME280;1100;52.014;8.540;2023-01-31T08:30:43;100519.44;;;2.90;92.57
2188;BME280;1100;52.014;8.540;2023-01-31T08:33:10;100502.63;;;2.95;92.82
2188;BME280;1100;52.014;8.540;2023-01-31T08:35:36;100490.84;;;2.95;92.71
2188;BME280;1100;52.014;8.540;2023-01-31T08:38:02;100504.22;;;2.96;92.54
2188;BME280;1100;52.014;8.540;2023-01-31T08:40:27;100474.38;;;2.95;92.29
2188;BME280;1100;52.014;8.540;2023-01-31T08:42:54;100479.88;;;2.98;92.33
2188;BME280;1100;52.014;8.540;2023-01-31T08:45:20;100479.50;;;3.00;92.27
2188;BME280;1100;52.014;8.540;2023-01-31T08:47:45;100482.25;;;2.96;92.20
2188;BME280;1100;52.014;8.540;2023-01-31T08:50:11;100478.28;;;2.94;92.27
2188;BME280;1100;52.014;8.540;2023-01-31T08:52:36;100473.91;;;2.85;92.36
2188;BME280;1100;52.014;8.540;2023-01-31T08:55:01;100477.28;;;2.75;92.02
2188;BME280;1100;52.014;8.540;2023-01-31T08:57:28;100475.22;;;2.65;92.37
2188;BME280;1100;52.014;8.540;2023-01-31T08:59:53;100479.88;;;2.60;92.13
2188;BME280;1100;52.014;8.540;2023-01-31T09:02:19;100471.63;;;2.57;92.40
2188;BME280;1100;52.014;8.540;2023-01-31T09:04:45;100476.25;;;2.53;92.51
2188;BME280;1100;52.014;8.540;2023-01-31T09:07:10;100470.75;;;2.49;92.29
2188;BME280;1100;52.014;8.540;2023-01-31T09:09:36;100477.34;;;2.44;92.65
2188;BME280;1100;52.014;8.540;2023-01-31T09:12:02;100463.22;;;2.42;92.94
2188;BME280;1100;52.014;8.540;2023-01-31T09:14:28;100469.06;;;2.41;92.84
2188;BME280;1100;52.014;8.540;2023-01-31T09:16:54;100471.00;;;2.36;92.95
2188;BME280;1100;52.014;8.540;2023-01-31T09:19:20;100470.13;;;2.32;92.75
2188;BME280;1100;52.014;8.540;2023-01-31T09:21:46;100462.25;;;2.27;92.87
2188;BME280;1100;52.014;8.540;2023-01-31T09:24:11;100441.78;;;2.21;92.92
2188;BME280;1100;52.014;8.540;2023-01-31T09:26:37;100448.03;;;2.18;92.69
2188;BME280;1100;52.014;8.540;2023-01-31T09:29:02;100430.41;;;2.19;93.31
2188;BME280;1100;52.014;8.540;2023-01-31T09:31:27;100443.31;;;2.18;93.62
2188;BME280;1100;52.014;8.540;2023-01-31T09:33:54;100429.19;;;2.16;93.49
2188;BME280;1100;52.014;8.540;2023-01-31T09:36:20;100429.56;;;2.15;93.37
2188;BME280;1100;52.014;8.540;2023-01-31T09:38:46;100407.63;;;2.15;93.45
2188;BME280;1100;52.014;8.540;2023-01-31T09:43:40;100422.13;;;2.15;93.84
2188;BME280;1100;52.014;8.540;2023-01-31T09:46:12;100420.91;;;2.13;94.01
2188;BME280;1100;52.014;8.540;2023-01-31T09:48:41;100435.00;;;2.11;94.23
2188;BME280;1100;52.014;8.540;2023-01-31T09:51:11;100429.47;;;2.07;94.03
2188;BME280;1100;52.014;8.540;2023-01-31T09:53:38;100431.06;;;2.08;94.33
2188;BME280;1100;52.014;8.540;2023-01-31T10:04:41;100440.50;;;2.11;94.62
2188;BME280;1100;52.014;8.540;2023-01-31T10:07:12;100440.50;;;2.11;94.42
2188;BME280;1100;52.014;8.540;2023-01-31T10:09:44;100438.19;;;2.13;94.76
2188;BME280;1100;52.014;8.540;2023-01-31T10:12:15;100431.16;;;2.16;94.61
2188;BME280;1100;52.014;8.540;2023-01-31T10:14:48;100438.19;;;2.17;94.85
2188;BME280;1100;52.014;8.540;2023-01-31T10:17:25;100430.03;;;2.20;95.20
2188;BME280;1100;52.014;8.540;2023-01-31T10:22:44;100414.75;;;2.23;94.77
2188;BME280;1100;52.014;8.540;2023-01-31T10:27:54;100421.88;;;2.28;94.78
2188;BME280;1100;52.014;8.540;2023-01-31T10:30:27;100413.28;;;2.29;94.97
2188;BME280;1100;52.014;8.540;2023-01-31T10:33:15;100421.13;;;2.31;95.05
2188;BME280;1100;52.014;8.540;2023-01-31T10:35:44;100407.03;;;2.32;94.81
2188;BME280;1100;52.014;8.540;2023-01-31T10:38:20;100422.38;;;2.37;94.94
2188;BME280;1100;52.014;8.540;2023-01-31T10:40:51;100406.34;;;2.39;95.13
2188;BME280;1100;52.014;8.540;2023-01-31T10:43:35;100400.03;;;2.39;95.31
2188;BME280;1100;52.014;8.540;2023-01-31T10:46:08;100393.81;;;2.42;95.47
2188;BME280;1100;52.014;8.540;2023-01-31T10:48:34;100398.16;;;2.43;95.21
2188;BME280;1100;52.014;8.540;2023-01-31T10:54:00;100379.75;;;2.47;95.21
2188;BME280;1100;52.014;8.540;2023-01-31T10:56:37;100390.38;;;2.48;95.43
2188;BME280;1100;52.014;8.540;2023-01-31T10:59:10;100373.94;;;2.52;95.48
2188;BME280;1100;52.014;8.540;2023-01-31T11:01:37;100366.53;;;2.56;95.89
2188;BME280;1100;52.014;8.540;2023-01-31T11:04:20;100372.44;;;2.58;95.36
2188;BME280;1100;52.014;8.540;2023-01-31T11:06:47;100359.53;;;2.63;95.51
2188;BME280;1100;52.014;8.540;2023-01-31T11:09:12;100350.91;;;2.64;95.45
2188;BME280;1100;52.014;8.540;2023-01-31T11:11:54;100344.25;;;2.65;95.41
2188;BME280;1100;52.014;8.540;2023-01-31T11:14:20;100343.91;;;2.67;95.52
2188;BME280;1100;52.014;8.540;2023-01-31T11:16:46;100343.53;;;2.72;95.51
2188;BME280;1100;52.014;8.540;2023-01-31T11:19:29;100336.13;;;2.76;95.12
2188;BME280;1100;52.014;8.540;2023-01-31T11:21:57;100333.78;;;2.78;95.42
2188;BME280;1100;52.014;8.540;2023-01-31T11:24:26;100332.63;;;2.79;95.45
2188;BME280;1100;52.014;8.540;2023-01-31T11:26:57;100312.22;;;2.80;95.39
2188;BME280;1100;52.014;8.540;2023-01-31T11:29:29;100311.06;;;2.81;95.47
2188;BME280;1100;52.014;8.540;2023-01-31T11:31:57;100296.94;;;2.83;95.18
2188;BME280;1100;52.014;8.540;2023-01-31T11:34:25;100313.41;;;2.83;95.28
2188;BME280;1100;52.014;8.540;2023-01-31T11:36:51;100304.81;;;2.84;95.52
2188;BME280;1100;52.014;8.540;2023-01-31T11:39:30;100300.53;;;2.87;95.58
2188;BME280;1100;52.014;8.540;2023-01-31T11:41:56;100303.66;;;2.85;95.70
2188;BME280;1100;52.014;8.540;2023-01-31T11:44:22;100323.66;;;2.86;95.30
2188;BME280;1100;52.014;8.540;2023-01-31T11:46:56;100302.09;;;2.88;95.52
2188;BME280;1100;52.014;8.540;2023-01-31T11:49:36;100301.72;;;2.90;95.72
2188;BME280;1100;52.014;8.540;2023-01-31T11:52:14;100279.75;;;2.90;95.60
2188;BME280;1100;52.014;8.540;2023-01-31T11:54:43;100298.16;;;2.89;95.90
2188;BME280;1100;52.014;8.540;2023-01-31T11:57:15;100289.56;;;2.91;95.58
2188;BME280;1100;52.014;8.540;2023-01-31T11:59:41;100283.69;;;2.92;95.78
2188;BME280;1100;52.014;8.540;2023-01-31T12:02:23;100296.66;;;2.95;95.53
2188;BME280;1100;52.014;8.540;2023-01-31T12:04:50;100299.81;;;2.97;95.81
2188;BME280;1100;52.014;8.540;2023-01-31T12:07:28;100311.59;;;2.98;95.82
2188;BME280;1100;52.014;8.540;2023-01-31T12:09:56;100275.88;;;2.98;95.50
2188;BME280;1100;52.014;8.540;2023-01-31T12:12:32;100262.94;;;2.98;95.91
2188;BME280;1100;52.014;8.540;2023-01-31T12:15:04;100255.47;;;2.99;95.54
2188;BME280;1100;52.014;8.540;2023-01-31T12:17:43;100247.66;;;3.01;95.80
2188;BME280;1100;52.014;8.540;2023-01-31T12:20:35;100243.69;;;2.98;95.87
2188;BME280;1100;52.014;8.540;2023-01-31T12:33:53;100229.97;;;2.98;95.65
2188;BME280;1100;52.014;8.540;2023-01-31T12:41:40;100218.25;;;3.05;95.92
2188;BME280;1100;52.014;8.540;2023-01-31T12:50:11;100228.03;;;3.06;95.74
2188;BME280;1100;52.014;8.540;2023-01-31T13:00:45;100235.06;;;2.96;95.50
2188;BME280;1100;52.014;8.540;2023-01-31T13:06:09;100234.28;;;2.96;95.89
2188;BME280;1100;52.014;8.540;2023-01-31T13:08:42;100240.94;;;2.95;95.55
2188;BME280;1100;52.014;8.540;2023-01-31T13:11:19;100246.81;;;2.97;95.88
2188;BME280;1100;52.014;8.540;2023-01-31T13:13:53;100248.00;;;2.96;95.61
2188;BME280;1100;52.014;8.540;2023-01-31T13:16:34;100249.56;;;2.93;95.61
2188;BME280;1100;52.014;8.540;2023-01-31T13:19:05;100253.50;;;2.96;95.73
2188;BME280;1100;52.014;8.540;2023-01-31T13:21:39;100248.41;;;2.98;96.05
2188;BME280;1100;52.014;8.540;2023-01-31T13:24:31;100252.31;;;2.97;95.90
2188;BME280;1100;52.014;8.540;2023-01-31T13:27:07;100245.25;;;2.96;95.50
2188;BME280;1100;52.014;8.540;2023-01-31T13:29:39;100247.63;;;2.97;95.79
2188;BME280;1100;52.014;8.540;2023-01-31T13:34:54;100250.78;;;2.99;96.05
2188;BME280;1100;52.014;8.540;2023-01-31T13:37:21;100258.66;;;3.01;96.33
2188;BME280;1100;52.014;8.540;2023-01-31T13:39:51;100249.22;;;3.02;96.32
2188;BME280;1100;52.014;8.540;2023-01-31T13:42:18;100242.16;;;3.01;96.27
2188;BME280;1100;52.014;8.540;2023-01-31T13:44:45;100237.47;;;3.05;96.34
2188;BME280;1100;52.014;8.540;2023-01-31T13:50:36;100220.63;;;3.10;96.60
2188;BME280;1100;52.014;8.540;2023-01-31T13:52:55;100211.59;;;3.10;96.45
2188;BME280;1100;52.014;8.540;2023-01-31T13:55:36;100215.16;;;3.10;96.20
2188;BME280;1100;52.014;8.540;2023-01-31T13:58:14;100213.97;;;3.11;96.63
2188;BME280;1100;52.014;8.540;2023-01-31T14:00:44;100207.28;;;3.13;96.31
2188;BME280;1100;52.014;8.540;2023-01-31T14:03:18;100198.28;;;3.16;96.42
2188;BME280;1100;52.014;8.540;2023-01-31T14:08:33;100209.69;;;3.25;96.51
2188;BME280;1100;52.014;8.540;2023-01-31T14:11:01;100200.69;;;3.28;96.76
2188;BME280;1100;52.014;8.540;2023-01-31T14:13:40;100204.25;;;3.32;96.38
2188;BME280;1100;52.014;8.540;2023-01-31T14:16:43;100199.94;;;3.35;96.72
2188;BME280;1100;52.014;8.540;2023-01-31T14:22:12;100193.66;;;3.38;96.36
2188;BME280;1100;52.014;8.540;2023-01-31T14:27:40;100197.59;;;3.41;96.80
2188;BME280;1100;52.014;8.540;2023-01-31T14:30:14;100198.41;;;3.45;96.85
2188;BME280;1100;52.014;8.540;2023-01-31T14:32:48;100196.84;;;3.47;96.67
2188;BME280;1100;52.014;8.540;2023-01-31T14:37:52;100188.59;;;3.55;97.17
2188;BME280;1100;52.014;8.540;2023-01-31T14:40:28;100203.94;;;3.56;96.61
2188;BME280;1100;52.014;8.540;2023-01-31T14:43:24;100202.00;;;3.64;97.23
2188;BME280;1100;52.014;8.540;2023-01-31T14:46:17;100201.63;;;3.65;96.81
2188;BME280;1100;52.014;8.540;2023-01-31T14:49:07;100189.81;;;3.65;96.93
2188;BME280;1100;52.014;8.540;2023-01-31T14:54:19;100192.56;;;3.72;96.79
2188;BME280;1100;52.014;8.540;2023-01-31T14:59:31;100213.41;;;3.77;97.11
2188;BME280;1100;52.014;8.540;2023-01-31T15:01:58;100202.00;;;3.78;97.62
2188;BME280;1100;52.014;8.540;2023-01-31T15:04:26;100211.06;;;3.79;97.48
2188;BME280;1100;52.014;8.540;2023-01-31T15:06:53;100211.06;;;3.82;97.56
2188;BME280;1100;52.014;8.540;2023-01-31T15:11:47;100204.78;;;3.89;97.63
2188;BME280;1100;52.014;8.540;2023-01-31T15:16:59;100211.88;;;3.94;97.25
2188;BME280;1100;52.014;8.540;2023-01-31T15:19:26;100204.41;;;3.94;97.71